Time;durP1;ratioP1;P1;durP2;ratioP2;P2;SDS_P1;SDS_P2;PMS_P1;PMS_P2;Temp;Humidity;BMP_temperature;BMP_pressure;BME280_temperature;BME280_humidity;BME280_pressure;Samples;Min_cycle;Max_cycle;Signal;HPM_P1;HPM_P2
2021/04/16 00:00:47;;;;;;;5.33;4.63;;;12.40;99.90;;;;;;5001004;28;20189;-70
2021/04/16 00:03:15;;;;;;;7.63;4.80;;;12.30;99.90;;;;;;4982318;28;20303;-71
2021/04/16 00:05:43;;;;;;;8.00;5.13;;;12.30;99.90;;;;;;5020342;28;20256;-70
2021/04/16 00:08:22;;;;;;;6.73;4.27;;;12.40;99.90;;;;;;5003236;28;20263;-70
2021/04/16 00:11:06;;;;;;;8.30;4.40;;;12.30;99.90;;;;;;4983130;28;20189;-71
2021/04/16 00:13:32;;;;;;;8.00;4.80;;;12.20;99.90;;;;;;4994861;28;20192;-70
2021/04/16 00:16:03;;;;;;;9.03;4.83;;;12.30;99.90;;;;;;5004468;28;20185;-72
2021/04/16 00:18:31;;;;;;;6.83;4.90;;;12.20;99.90;;;;;;5003158;28;20193;-71
2021/04/16 00:20:58;;;;;;;5.53;4.37;;;12.20;99.90;;;;;;4999237;28;20200;-71
2021/04/16 00:23:27;;;;;;;6.80;4.50;;;12.20;99.90;;;;;;5001676;28;20221;-72
2021/04/16 00:25:54;;;;;;;6.23;4.27;;;12.20;99.90;;;;;;5003971;28;20504;-73
2021/04/16 00:28:22;;;;;;;6.03;4.60;;;12.30;99.90;;;;;;5000802;28;20189;-71
2021/04/16 00:31:00;;;;;;;7.80;4.93;;;12.30;99.90;;;;;;4987409;28;20193;-70
2021/04/16 00:33:28;;;;;;;7.73;4.60;;;12.40;99.90;;;;;;4983166;28;20185;-70
2021/04/16 00:35:56;;;;;;;6.80;4.90;;;12.30;99.90;;;;;;5003430;28;20193;-71
2021/04/16 00:38:24;;;;;;;8.53;4.90;;;12.30;99.90;;;;;;5000749;28;20192;-71
2021/04/16 00:40:57;;;;;;;6.63;4.80;;;12.30;99.90;;;;;;4988405;28;20220;-70
2021/04/16 00:43:27;;;;;;;9.43;5.00;;;12.30;99.90;;;;;;5003528;28;20240;-71
2021/04/16 00:46:25;;;;;;;11.83;5.03;;;12.40;99.90;;;;;;5000043;28;20182;-70
2021/04/16 00:48:58;;;;;;;7.13;4.87;;;12.40;99.90;;;;;;5009894;28;20189;-70
2021/04/16 00:51:41;;;;;;;9.00;5.03;;;12.50;99.90;;;;;;5000168;28;20180;-70
2021/04/16 00:54:20;;;;;;;6.87;4.53;;;12.30;99.90;;;;;;4988937;28;20188;-71
2021/04/16 00:56:48;;;;;;;5.13;4.30;;;12.20;99.90;;;;;;5003513;28;20188;-70
2021/04/16 00:59:20;;;;;;;9.17;4.50;;;12.10;99.90;;;;;;5002044;28;20185;-72
2021/04/16 01:01:46;;;;;;;5.70;4.63;;;12.10;99.90;;;;;;5002136;28;20228;-70
2021/04/16 01:04:13;;;;;;;7.03;3.90;;;12.10;99.90;;;;;;5001095;28;20189;-70
2021/04/16 01:06:40;;;;;;;5.50;4.27;;;12.20;99.90;;;;;;5020896;28;20188;-71
2021/04/16 01:09:08;;;;;;;7.33;4.47;;;12.20;99.90;;;;;;5002632;28;20192;-70
2021/04/16 01:11:34;;;;;;;6.63;4.23;;;12.20;99.90;;;;;;4986576;28;20364;-70
2021/04/16 01:14:03;;;;;;;5.60;3.87;;;12.20;99.90;;;;;;5001593;28;20181;-70
2021/04/16 01:16:32;;;;;;;6.13;4.40;;;12.20;99.90;;;;;;4982101;28;20243;-71
2021/04/16 01:19:17;;;;;;;6.47;4.57;;;12.20;99.90;;;;;;5002723;28;20185;-72
2021/04/16 01:22:04;;;;;;;4.00;3.60;;;12.10;99.90;;;;;;5002793;28;20209;-72
2021/04/16 01:24:33;;;;;;;6.20;3.90;;;12.00;99.90;;;;;;5006746;28;20181;-73
2021/04/16 01:27:03;;;;;;;6.23;3.90;;;11.90;99.90;;;;;;4985329;28;20184;-72
2021/04/16 01:29:29;;;;;;;6.53;4.40;;;11.80;99.90;;;;;;5002806;28;20186;-70
2021/04/16 01:31:56;;;;;;;7.83;4.37;;;11.90;99.90;;;;;;5013622;28;20217;-71
2021/04/16 01:34:27;;;;;;;8.07;3.67;;;12.10;99.90;;;;;;5015514;28;20189;-70
2021/04/16 01:36:57;;;;;;;6.20;3.90;;;12.30;99.90;;;;;;4989238;28;20181;-70
2021/04/16 01:39:27;;;;;;;6.03;3.50;;;12.40;99.90;;;;;;4986615;28;20177;-73
2021/04/16 01:41:54;;;;;;;10.03;3.43;;;12.40;99.90;;;;;;4982852;28;20244;-73
2021/04/16 01:44:28;;;;;;;7.90;4.00;;;12.40;99.90;;;;;;4985907;28;20181;-70
2021/04/16 01:47:08;;;;;;;5.37;3.20;;;12.60;99.90;;;;;;4996587;28;20200;-70
2021/04/16 01:49:40;;;;;;;6.13;3.40;;;12.70;99.90;;;;;;5001191;28;20228;-70
2021/04/16 01:52:15;;;;;;;5.97;3.27;;;12.70;99.90;;;;;;4998855;28;20725;-70
2021/04/16 01:54:51;;;;;;;4.53;3.40;;;12.50;99.90;;;;;;5017198;28;20628;-70
2021/04/16 01:57:37;;;;;;;5.73;3.40;;;12.50;99.90;;;;;;4989251;28;20322;-70
2021/04/16 02:00:36;;;;;;;7.57;3.50;;;12.50;99.90;;;;;;5002253;28;20189;-70
2021/04/16 02:03:04;;;;;;;8.53;3.43;;;12.50;99.90;;;;;;4983840;28;20212;-70
2021/04/16 02:05:31;;;;;;;8.00;2.90;;;12.40;99.90;;;;;;4986976;28;20210;-70
2021/04/16 02:07:57;;;;;;;7.40;3.00;;;12.40;99.90;;;;;;5000999;28;20304;-70
2021/04/16 02:10:26;;;;;;;7.83;3.30;;;12.30;99.90;;;;;;5006542;28;20220;-71
2021/04/16 02:12:53;;;;;;;5.93;2.90;;;12.30;99.90;;;;;;5000784;28;20196;-71
2021/04/16 02:15:20;;;;;;;5.20;3.13;;;12.30;99.90;;;;;;5000742;28;20186;-73
2021/04/16 02:17:46;;;;;;;14.23;3.20;;;12.20;99.90;;;;;;5003907;28;20213;-73
2021/04/16 02:20:23;;;;;;;6.40;3.17;;;12.20;99.90;;;;;;5004084;28;20177;-71
2021/04/16 02:22:50;;;;;;;6.90;3.23;;;12.40;99.90;;;;;;4998765;28;21475;-73
2021/04/16 02:25:17;;;;;;;5.30;2.70;;;12.60;99.90;;;;;;5002650;28;20207;-73
2021/04/16 02:27:44;;;;;;;8.20;3.10;;;12.60;99.90;;;;;;5019569;28;20211;-71
2021/04/16 02:30:20;;;;;;;8.50;3.00;;;12.60;99.90;;;;;;5003422;28;20558;-70
2021/04/16 02:32:48;;;;;;;6.93;2.60;;;12.60;99.90;;;;;;5000008;28;20204;-71
2021/04/16 02:35:15;;;;;;;9.50;3.03;;;12.60;99.90;;;;;;4999500;28;20194;-73
2021/04/16 02:37:42;;;;;;;4.87;2.70;;;12.70;99.90;;;;;;5000145;28;20184;-73
2021/04/16 02:40:14;;;;;;;9.67;2.63;;;12.70;99.90;;;;;;5000466;28;20283;-70
2021/04/16 02:42:40;;;;;;;5.10;2.83;;;12.70;99.90;;;;;;5015258;28;20587;-71
2021/04/16 02:45:10;;;;;;;7.50;2.90;;;12.70;99.90;;;;;;4979589;28;20578;-71
2021/04/16 02:47:36;;;;;;;6.17;2.83;;;12.80;99.90;;;;;;5000555;28;20843;-71
2021/04/16 02:50:07;;;;;;;10.20;3.20;;;12.80;99.90;;;;;;4999846;28;20189;-71
2021/04/16 02:52:34;;;;;;;9.30;3.40;;;12.90;99.90;;;;;;4999921;28;20649;-71
2021/04/16 02:55:00;;;;;;;6.73;2.67;;;12.90;99.90;;;;;;4999988;28;20182;-71
2021/04/16 02:57:27;;;;;;;5.50;2.57;;;13.00;99.90;;;;;;5001170;28;20189;-70
2021/04/16 02:59:53;;;;;;;6.63;2.67;;;13.10;99.90;;;;;;4998047;28;20196;-71
2021/04/16 03:02:19;;;;;;;5.27;3.00;;;13.10;99.90;;;;;;5003196;28;20253;-71
2021/04/16 03:04:46;;;;;;;6.37;2.90;;;13.30;99.90;;;;;;5016006;28;20184;-71
2021/04/16 03:07:12;;;;;;;7.93;3.20;;;13.30;99.90;;;;;;5001988;28;20197;-71
2021/04/16 03:09:38;;;;;;;7.10;3.20;;;13.40;99.90;;;;;;5003133;28;20193;-71
2021/04/16 03:12:06;;;;;;;7.27;3.17;;;13.40;99.90;;;;;;5000049;28;20184;-71
2021/04/16 03:14:32;;;;;;;5.03;2.83;;;13.50;99.90;;;;;;4999704;28;21231;-71
2021/04/16 03:16:58;;;;;;;3.50;3.00;;;13.50;99.90;;;;;;4977481;28;20292;-71
2021/04/16 03:19:25;;;;;;;4.03;3.07;;;13.40;99.90;;;;;;4997479;28;20184;-71
2021/04/16 03:21:51;;;;;;;4.70;2.97;;;13.40;99.90;;;;;;5002807;28;20209;-70
2021/04/16 03:24:17;;;;;;;5.40;3.77;;;13.30;99.90;;;;;;5001665;28;20629;-71
2021/04/16 03:26:44;;;;;;;4.93;2.90;;;13.40;99.90;;;;;;5002976;28;20188;-70
2021/04/16 03:29:10;;;;;;;4.93;3.20;;;13.40;99.90;;;;;;4997465;28;20200;-71
2021/04/16 03:31:36;;;;;;;4.23;3.13;;;13.40;99.90;;;;;;5002465;28;20630;-71
2021/04/16 03:34:03;;;;;;;5.50;3.10;;;13.40;99.90;;;;;;4997936;28;20185;-71
2021/04/16 03:36:31;;;;;;;5.73;3.17;;;13.40;99.90;;;;;;4996506;28;20201;-71
2021/04/16 03:38:57;;;;;;;6.07;3.47;;;13.30;99.90;;;;;;4997597;28;20178;-72
2021/04/16 03:41:24;;;;;;;5.17;3.53;;;13.30;99.90;;;;;;4978444;28;20272;-71
2021/04/16 03:43:50;;;;;;;5.80;3.33;;;13.30;99.90;;;;;;4982924;28;20276;-72
2021/04/16 03:46:17;;;;;;;7.20;3.33;;;13.30;99.90;;;;;;5005466;28;20888;-71
2021/04/16 03:48:44;;;;;;;10.63;3.50;;;13.30;99.90;;;;;;5000402;28;20201;-71
2021/04/16 03:51:11;;;;;;;7.50;3.50;;;13.20;99.90;;;;;;5022256;28;20189;-71
2021/04/16 03:53:43;;;;;;;6.83;3.30;;;13.20;99.90;;;;;;5003177;28;20670;-72
2021/04/16 03:56:12;;;;;;;6.80;3.17;;;13.20;99.90;;;;;;5000245;28;20275;-71
2021/04/16 03:58:39;;;;;;;4.40;2.80;;;13.20;99.90;;;;;;5004520;28;20216;-71
2021/04/16 04:01:08;;;;;;;5.33;3.00;;;13.30;99.90;;;;;;5019420;28;20196;-71
2021/04/16 04:03:36;;;;;;;9.73;3.03;;;13.40;99.90;;;;;;5002269;28;20219;-71
2021/04/16 04:06:04;;;;;;;6.67;3.17;;;13.50;99.90;;;;;;5005097;28;20189;-72
2021/04/16 04:08:30;;;;;;;6.20;3.40;;;13.50;99.90;;;;;;4987790;28;20650;-70
2021/04/16 04:10:57;;;;;;;4.83;3.70;;;13.60;99.90;;;;;;5017278;28;20189;-71
2021/04/16 04:13:24;;;;;;;6.50;3.57;;;13.60;99.90;;;;;;5003098;28;20215;-71
2021/04/16 04:15:50;;;;;;;7.57;2.97;;;13.60;99.90;;;;;;5016934;28;20196;-71
2021/04/16 04:18:17;;;;;;;3.30;3.00;;;13.60;99.90;;;;;;5006422;28;20216;-71
2021/04/16 04:20:43;;;;;;;8.07;3.20;;;13.60;99.90;;;;;;4988312;28;20588;-71
2021/04/16 04:23:10;;;;;;;7.67;3.40;;;13.60;99.90;;;;;;5020325;28;20220;-72
2021/04/16 04:25:37;;;;;;;6.13;2.83;;;13.70;99.90;;;;;;5003465;28;20951;-71
2021/04/16 04:28:06;;;;;;;9.93;3.03;;;13.70;99.90;;;;;;4982450;28;20180;-71
2021/04/16 04:30:36;;;;;;;11.57;3.10;;;13.70;99.90;;;;;;4997995;28;20761;-70
2021/04/16 04:33:05;;;;;;;5.97;3.33;;;13.80;99.90;;;;;;5002712;28;20197;-72
2021/04/16 04:35:33;;;;;;;7.53;2.97;;;13.80;99.90;;;;;;5002782;28;20276;-72
2021/04/16 04:37:59;;;;;;;5.80;3.20;;;13.90;99.90;;;;;;4999873;28;20197;-73
2021/04/16 04:40:27;;;;;;;6.17;2.97;;;14.00;99.90;;;;;;5003944;28;20185;-73
2021/04/16 04:42:54;;;;;;;12.70;3.67;;;14.10;99.90;;;;;;4998479;28;20220;-74
2021/04/16 04:45:24;;;;;;;6.57;3.40;;;14.10;99.90;;;;;;4997516;28;20193;-74
2021/04/16 04:47:52;;;;;;;8.10;3.53;;;14.20;99.90;;;;;;5001724;28;20287;-74
2021/04/16 04:50:20;;;;;;;4.43;2.93;;;14.30;99.90;;;;;;5001860;28;20234;-73
2021/04/16 04:52:47;;;;;;;7.27;3.40;;;14.40;99.90;;;;;;5003764;28;20209;-73
2021/04/16 04:55:20;;;;;;;5.60;3.27;;;14.50;99.90;;;;;;5004631;28;20269;-70
2021/04/16 04:57:49;;;;;;;6.43;3.67;;;14.60;99.90;;;;;;5003383;28;20645;-74
2021/04/16 05:00:18;;;;;;;5.67;3.50;;;14.70;99.90;;;;;;5000953;28;20205;-74
2021/04/16 05:02:44;;;;;;;9.53;3.30;;;14.80;99.90;;;;;;5003208;28;20688;-74
2021/04/16 05:05:13;;;;;;;5.53;3.60;;;14.70;99.90;;;;;;5001825;28;20197;-73
2021/04/16 05:07:39;;;;;;;5.63;3.20;;;14.70;99.90;;;;;;5000635;28;20234;-73
2021/04/16 05:10:08;;;;;;;4.20;3.40;;;14.70;99.90;;;;;;5000022;28;20592;-74
2021/04/16 05:12:35;;;;;;;8.73;3.40;;;14.70;99.90;;;;;;4999838;28;20220;-74
2021/04/16 05:15:03;;;;;;;6.63;3.57;;;14.70;99.90;;;;;;5001954;28;20271;-74
2021/04/16 05:17:29;;;;;;;6.37;3.50;;;14.70;99.90;;;;;;4983669;28;20204;-74
2021/04/16 05:19:56;;;;;;;8.33;3.53;;;14.70;99.90;;;;;;4998858;28;20193;-73
2021/04/16 05:22:22;;;;;;;6.43;3.70;;;14.70;99.90;;;;;;4997013;28;20627;-73
2021/04/16 05:24:49;;;;;;;4.67;3.70;;;14.70;99.90;;;;;;4999711;28;20661;-73
2021/04/16 05:27:19;;;;;;;7.60;4.00;;;14.80;99.90;;;;;;5003654;28;20189;-71
2021/04/16 05:29:46;;;;;;;9.10;3.70;;;14.90;99.90;;;;;;5001339;28;20989;-73
2021/04/16 05:32:13;;;;;;;10.07;3.60;;;15.00;99.90;;;;;;4999544;28;20243;-74
2021/04/16 05:34:41;;;;;;;5.90;3.47;;;14.90;99.90;;;;;;5001683;28;20192;-73
2021/04/16 05:37:08;;;;;;;8.93;4.13;;;14.80;99.90;;;;;;4995151;28;20646;-74
2021/04/16 05:39:35;;;;;;;4.57;3.70;;;14.90;99.90;;;;;;5006357;28;20177;-72
2021/04/16 05:42:01;;;;;;;8.60;3.80;;;15.00;99.90;;;;;;4997088;28;20245;-73
2021/04/16 05:44:28;;;;;;;9.37;3.50;;;15.10;99.90;;;;;;4984712;28;20196;-73
2021/04/16 05:46:54;;;;;;;9.03;3.10;;;15.10;99.90;;;;;;5001143;28;20627;-71
2021/04/16 05:49:21;;;;;;;4.07;3.20;;;15.10;99.90;;;;;;4987349;28;20189;-72
2021/04/16 05:51:47;;;;;;;8.87;3.47;;;15.10;99.90;;;;;;4999902;28;20267;-72
2021/04/16 05:54:14;;;;;;;5.73;3.23;;;15.30;99.90;;;;;;5002124;28;20590;-72
2021/04/16 05:56:40;;;;;;;6.43;3.50;;;15.30;99.90;;;;;;4999424;28;20225;-73
2021/04/16 05:59:06;;;;;;;9.00;3.30;;;15.40;99.90;;;;;;4985048;28;20197;-73
2021/04/16 06:01:34;;;;;;;7.43;3.47;;;15.50;99.90;;;;;;4998468;28;20220;-72
2021/04/16 06:04:01;;;;;;;7.00;3.13;;;15.60;99.90;;;;;;5003549;28;20235;-72
2021/04/16 06:06:27;;;;;;;6.17;3.10;;;15.70;99.90;;;;;;5000241;28;20197;-71
2021/04/16 06:08:55;;;;;;;5.73;3.17;;;15.70;99.90;;;;;;5011782;28;20197;-71
2021/04/16 06:11:23;;;;;;;6.93;3.30;;;15.70;99.90;;;;;;5001027;28;20189;-71
2021/04/16 06:13:50;;;;;;;4.83;3.00;;;15.70;99.90;;;;;;4999508;28;20776;-74
2021/04/16 06:16:17;;;;;;;9.80;3.70;;;15.70;99.90;;;;;;5004322;28;20209;-70
2021/04/16 06:18:43;;;;;;;4.20;2.90;;;15.80;99.90;;;;;;4999635;28;20190;-71
2021/04/16 06:21:13;;;;;;;7.07;3.43;;;15.80;99.90;;;;;;5003736;28;20200;-71
2021/04/16 06:23:40;;;;;;;6.73;3.50;;;15.90;99.90;;;;;;4979324;28;20257;-72
2021/04/16 06:26:07;;;;;;;7.53;2.90;;;15.90;99.90;;;;;;4997546;28;20192;-71
2021/04/16 06:28:34;;;;;;;11.10;3.57;;;15.90;99.90;;;;;;5000256;28;20207;-71
2021/04/16 06:31:01;;;;;;;9.83;2.87;;;16.00;99.90;;;;;;5000609;28;20703;-71
2021/04/16 06:33:34;;;;;;;9.23;3.37;;;16.10;99.90;;;;;;4997875;28;20185;-73
2021/04/16 06:36:07;;;;;;;6.83;3.23;;;16.10;99.90;;;;;;5003888;28;20196;-72
2021/04/16 06:38:41;;;;;;;8.00;2.83;;;16.20;99.90;;;;;;4996406;28;20291;-70
2021/04/16 06:41:27;;;;;;;8.03;3.37;;;16.30;99.90;;;;;;5004158;28;20194;-71
2021/04/16 06:44:14;;;;;;;5.83;2.80;;;16.50;99.90;;;;;;4980008;28;20185;-71
2021/04/16 06:46:45;;;;;;;5.50;3.00;;;16.50;99.90;;;;;;5004245;28;20188;-72
2021/04/16 06:49:27;;;;;;;7.33;3.00;;;16.60;99.90;;;;;;4998997;28;20894;-72
2021/04/16 06:52:15;;;;;;;8.93;3.13;;;16.80;99.90;;;;;;5000386;28;20287;-71
2021/04/16 06:55:05;;;;;;;7.17;3.40;;;17.00;99.90;;;;;;5000932;28;20235;-73
2021/04/16 06:57:54;;;;;;;9.57;3.07;;;17.20;99.90;;;;;;4999820;28;20197;-74
2021/04/16 07:00:34;;;;;;;6.20;3.30;;;17.10;99.90;;;;;;5000928;28;20652;-73
2021/04/16 07:03:26;;;;;;;13.10;3.67;;;17.20;99.90;;;;;;5000160;28;20263;-73
2021/04/16 07:06:24;;;;;;;5.90;3.50;;;17.30;99.90;;;;;;4997390;28;20226;-71
2021/04/16 07:09:17;;;;;;;11.03;4.03;;;17.50;99.90;;;;;;4992106;28;20212;-74
2021/04/16 07:12:00;;;;;;;7.10;3.30;;;17.80;99.90;;;;;;4985880;28;20196;-73
2021/04/16 07:14:42;;;;;;;8.47;3.83;;;17.70;99.90;;;;;;4981024;28;20185;-74
2021/04/16 07:17:14;;;;;;;6.80;3.67;;;17.90;99.90;;;;;;4980535;28;20209;-72
2021/04/16 07:19:41;;;;;;;6.03;3.30;;;17.90;99.90;;;;;;4980997;28;20221;-75
2021/04/16 07:22:24;;;;;;;6.97;3.03;;;18.00;99.90;;;;;;5001071;28;20286;-75
2021/04/16 07:24:53;;;;;;;8.00;2.70;;;18.10;99.90;;;;;;4998787;28;20185;-73
2021/04/16 07:27:45;;;;;;;6.23;3.07;;;18.20;99.90;;;;;;4978039;28;20219;-70
2021/04/16 07:30:40;;;;;;;7.33;3.10;;;18.30;99.90;;;;;;4997386;28;21172;-70
2021/04/16 07:33:39;;;;;;;6.43;2.90;;;18.30;99.90;;;;;;5009343;28;20185;-73
2021/04/16 07:36:23;;;;;;;8.37;2.80;;;18.50;99.90;;;;;;4980179;28;20243;-73
2021/04/16 07:39:16;;;;;;;4.60;3.07;;;18.60;99.90;;;;;;4984034;28;20224;-71
2021/04/16 07:41:54;;;;;;;8.80;3.40;;;18.70;99.90;;;;;;4980048;28;20204;-71
2021/04/16 07:44:34;;;;;;;5.17;2.83;;;18.90;99.90;;;;;;5000014;28;20912;-71
2021/04/16 07:47:13;;;;;;;8.10;2.63;;;19.00;99.90;;;;;;4998658;28;20227;-72
2021/04/16 07:49:58;;;;;;;12.37;3.00;;;19.10;99.90;;;;;;4978836;28;20189;-71
2021/04/16 07:52:43;;;;;;;4.93;2.90;;;19.10;99.90;;;;;;4999096;28;20267;-72
2021/04/16 07:55:21;;;;;;;5.83;2.90;;;19.20;99.90;;;;;;4998272;28;20426;-72
2021/04/16 07:57:53;;;;;;;6.77;2.77;;;19.20;99.90;;;;;;4995920;28;20193;-71
2021/04/16 08:00:22;;;;;;;5.43;2.67;;;19.30;99.90;;;;;;4999130;28;20217;-70
2021/04/16 08:03:23;;;;;;;7.57;2.40;;;19.40;99.90;;;;;;4981830;28;20216;-71
2021/04/16 08:05:59;;;;;;;4.73;2.80;;;19.30;99.90;;;;;;4977410;28;20284;-71
2021/04/16 08:08:34;;;;;;;3.97;2.60;;;19.60;99.90;;;;;;5008635;28;20298;-72
2021/04/16 08:11:06;;;;;;;6.00;2.90;;;19.60;99.90;;;;;;4999055;28;20197;-70
2021/04/16 08:13:43;;;;;;;3.20;2.60;;;19.80;99.90;;;;;;4999176;28;20189;-71
2021/04/16 08:16:27;;;;;;;4.13;2.90;;;19.90;99.90;;;;;;4999830;28;20239;-71
2021/04/16 08:19:18;;;;;;;5.47;3.03;;;20.00;99.90;;;;;;5004710;28;20195;-71
2021/04/16 08:21:54;;;;;;;7.67;2.93;;;20.20;99.90;;;;;;4982712;28;20268;-71
2021/04/16 08:24:34;;;;;;;8.87;2.63;;;20.30;99.90;;;;;;4995439;28;20188;-71
2021/04/16 08:27:41;;;;;;;5.93;2.93;;;20.30;99.90;;;;;;4977703;28;20195;-70
2021/04/16 08:30:46;;;;;;;7.63;3.00;;;20.40;99.90;;;;;;4998225;28;20181;-70
2021/04/16 08:33:40;;;;;;;5.70;2.70;;;20.50;99.90;;;;;;5000477;28;20199;-71
2021/04/16 08:36:34;;;;;;;8.33;2.77;;;20.50;99.90;;;;;;5002238;28;20259;-72
2021/04/16 08:39:18;;;;;;;3.90;2.20;;;20.70;99.90;;;;;;5002312;28;20284;-70
2021/04/16 08:41:58;;;;;;;6.20;2.50;;;20.70;99.90;;;;;;5001057;28;20190;-70
2021/04/16 08:44:55;;;;;;;9.93;2.77;;;20.80;99.90;;;;;;4982165;28;20648;-70
2021/04/16 08:47:26;;;;;;;6.97;2.77;;;20.80;99.90;;;;;;4990956;28;20561;-70
2021/04/16 08:49:54;;;;;;;13.43;3.10;;;20.90;99.90;;;;;;4985830;28;20201;-70
2021/04/16 08:52:49;;;;;;;9.43;2.83;;;21.00;99.90;;;;;;4998203;28;20188;-70
2021/04/16 08:55:27;;;;;;;4.40;2.33;;;21.00;99.90;;;;;;5006791;28;20228;-71
2021/04/16 08:58:09;;;;;;;6.77;2.50;;;21.00;99.90;;;;;;5000737;28;20182;-71
2021/04/16 09:00:44;;;;;;;7.57;3.00;;;21.10;99.90;;;;;;5004568;28;20550;-70
2021/04/16 09:03:24;;;;;;;8.33;2.50;;;21.10;99.90;;;;;;4998650;28;20246;-72
2021/04/16 09:05:59;;;;;;;6.10;2.70;;;21.10;99.90;;;;;;5004333;28;20575;-72
2021/04/16 09:08:27;;;;;;;4.10;2.70;;;21.20;99.90;;;;;;5018462;28;20197;-71
2021/04/16 09:10:57;;;;;;;5.33;2.80;;;21.30;99.90;;;;;;5001993;28;20192;-70
2021/04/16 09:13:36;;;;;;;4.17;2.37;;;21.40;99.90;;;;;;4999680;28;20201;-72
2021/04/16 09:16:14;;;;;;;5.90;2.60;;;21.60;99.90;;;;;;5011331;28;20235;-71
2021/04/16 09:18:45;;;;;;;5.43;2.73;;;21.50;99.90;;;;;;4977750;28;20193;-70
2021/04/16 09:21:24;;;;;;;4.03;2.53;;;21.40;99.90;;;;;;5007392;28;20196;-71
2021/04/16 09:23:56;;;;;;;3.97;2.70;;;21.60;99.90;;;;;;4997758;28;20224;-71
2021/04/16 09:26:46;;;;;;;7.63;2.50;;;21.70;99.90;;;;;;5006667;28;20232;-71
2021/04/16 09:29:28;;;;;;;11.60;2.90;;;21.80;99.90;;;;;;4999926;28;20198;-70
2021/04/16 09:32:01;;;;;;;9.77;3.20;;;21.80;99.90;;;;;;5002484;28;20204;-72
2021/04/16 09:34:46;;;;;;;6.20;2.77;;;21.90;99.90;;;;;;4989337;28;20296;-72
2021/04/16 09:37:45;;;;;;;5.70;2.47;;;22.10;99.90;;;;;;5002860;28;20290;-70
2021/04/16 09:40:19;;;;;;;4.23;2.80;;;22.10;99.90;;;;;;5003986;28;20253;-72
2021/04/16 09:43:18;;;;;;;7.10;2.70;;;22.30;99.90;;;;;;5003648;28;20251;-71
2021/04/16 09:45:48;;;;;;;5.33;2.60;;;22.40;99.90;;;;;;4966823;28;20194;-71
2021/04/16 09:48:18;;;;;;;4.50;2.53;;;22.40;99.90;;;;;;5001471;28;20677;-70
2021/04/16 09:50:57;;;;;;;5.77;2.70;;;22.50;99.90;;;;;;4985480;28;20216;-70
2021/04/16 09:53:28;;;;;;;8.00;2.55;;;22.50;99.90;;;;;;5002798;28;20188;-71
2021/04/16 09:55:59;;;;;;;6.38;2.78;;;22.40;99.90;;;;;;4996129;28;20247;-73
2021/04/16 09:58:32;;;;;;;4.28;2.47;;;22.70;99.90;;;;;;4981438;28;20185;-73
2021/04/16 10:01:01;;;;;;;4.47;2.38;;;22.90;99.90;;;;;;4999261;28;20213;-71
2021/04/16 10:03:42;;;;;;;10.10;2.40;;;22.80;99.90;;;;;;5002238;28;21676;-72
2021/04/16 10:06:32;;;;;;;7.68;2.47;;;23.10;99.90;;;;;;5014372;28;20275;-70
2021/04/16 10:09:19;;;;;;;5.60;2.63;;;23.20;99.90;;;;;;5002904;28;20251;-71
2021/04/16 10:12:16;;;;;;;5.05;2.38;;;23.30;99.90;;;;;;4984986;28;20189;-71
2021/04/16 10:14:43;;;;;;;8.00;2.60;;;23.70;99.90;;;;;;4998271;28;20193;-72
2021/04/16 10:17:15;;;;;;;5.40;2.60;;;23.80;99.90;;;;;;4995420;28;20205;-72
2021/04/16 10:19:45;;;;;;;3.00;2.22;;;24.10;99.90;;;;;;5004671;28;20196;-73
2021/04/16 10:22:36;;;;;;;4.65;2.38;;;24.00;99.90;;;;;;4983348;28;20213;-75
2021/04/16 10:52:38;;;;;;;5.18;2.35;;;24.20;99.90;;;;;;5002469;28;20211;-73
2021/04/16 11:28:27;;;;;;;5.30;2.40;;;23.70;99.90;;;;;;4990143;28;20927;-72
2021/04/16 12:40:56;;;;;;;5.20;2.13;;;23.50;99.90;;;;;;5002073;28;20197;-73
2021/04/16 12:43:23;;;;;;;6.30;2.33;;;23.50;99.90;;;;;;5002016;28;20205;-73
2021/04/16 12:45:55;;;;;;;5.43;2.53;;;23.60;99.90;;;;;;5002086;28;20189;-73
2021/04/16 12:48:24;;;;;;;3.00;2.30;;;23.60;99.90;;;;;;4980684;28;20539;-73
2021/04/16 12:50:52;;;;;;;6.35;2.55;;;23.60;99.90;;;;;;5003675;28;20177;-73
2021/04/16 12:53:19;;;;;;;4.40;2.42;;;23.60;99.90;;;;;;4981784;28;20597;-73
2021/04/16 12:55:45;;;;;;;5.20;2.20;;;23.50;99.90;;;;;;4985549;28;20255;-73
2021/04/16 12:58:28;;;;;;;4.00;2.33;;;23.50;99.90;;;;;;4996790;28;20236;-73
2021/04/16 13:00:57;;;;;;;5.57;2.40;;;23.60;99.90;;;;;;5005056;28;20521;-72
2021/04/16 13:03:40;;;;;;;5.07;2.20;;;23.50;99.90;;;;;;4995371;28;20221;-72
2021/04/16 13:06:35;;;;;;;9.82;2.38;;;23.50;99.90;;;;;;5006503;28;20219;-72
2021/04/16 13:09:03;;;;;;;6.75;2.30;;;23.40;99.90;;;;;;4982169;28;20283;-73
2021/04/16 13:11:30;;;;;;;8.82;2.53;;;23.30;99.90;;;;;;5004900;28;20507;-72
2021/04/16 13:13:56;;;;;;;8.85;2.67;;;23.30;99.90;;;;;;5005017;28;20260;-74
2021/04/16 13:16:24;;;;;;;5.63;2.60;;;23.30;99.90;;;;;;4994867;28;20209;-73
2021/04/16 13:18:55;;;;;;;7.32;2.97;;;23.30;99.90;;;;;;5000697;28;20217;-74
2021/04/16 13:21:35;;;;;;;7.13;2.60;;;23.30;99.90;;;;;;5015663;28;20564;-75
2021/04/16 13:24:03;;;;;;;4.07;2.60;;;23.30;99.90;;;;;;4998876;28;20205;-72
2021/04/16 13:26:30;;;;;;;5.78;2.60;;;23.20;99.90;;;;;;5014693;28;20182;-74
2021/04/16 13:28:57;;;;;;;6.78;2.40;;;23.10;99.90;;;;;;4998989;28;20189;-72
2021/04/16 13:31:28;;;;;;;7.60;2.33;;;23.20;99.90;;;;;;4999272;28;20193;-74
2021/04/16 13:33:55;;;;;;;3.70;2.50;;;23.20;99.90;;;;;;5006760;28;20572;-73
2021/04/16 13:36:27;;;;;;;8.10;2.60;;;23.20;99.90;;;;;;4981875;28;20217;-72
2021/04/16 13:38:54;;;;;;;5.43;2.60;;;23.10;99.90;;;;;;4998637;28;20184;-72
2021/04/16 13:41:21;;;;;;;2.50;2.20;;;23.10;99.90;;;;;;5002529;28;20205;-73
2021/04/16 13:43:51;;;;;;;6.00;2.40;;;22.90;99.90;;;;;;4999423;28;20262;-72
2021/04/16 13:46:24;;;;;;;3.75;2.40;;;22.70;99.90;;;;;;5003020;28;20275;-72
2021/04/16 13:48:52;;;;;;;4.03;2.42;;;22.60;99.90;;;;;;4995794;28;21020;-72
2021/04/16 13:51:23;;;;;;;2.80;2.50;;;22.60;99.90;;;;;;4999409;28;20883;-72
2021/04/16 13:53:50;;;;;;;4.70;2.80;;;22.40;99.90;;;;;;5000224;28;20518;-72
2021/04/16 13:56:17;;;;;;;4.90;2.60;;;22.50;99.90;;;;;;5003160;28;20196;-73
2021/04/16 13:58:43;;;;;;;7.07;2.78;;;22.40;99.90;;;;;;5000585;28;20197;-72
2021/04/16 14:01:13;;;;;;;6.80;2.57;;;22.40;99.90;;;;;;4996026;28;20909;-72
2021/04/16 14:03:44;;;;;;;5.37;2.77;;;22.40;99.90;;;;;;5001877;28;20208;-74
2021/04/16 14:06:29;;;;;;;4.07;2.67;;;22.30;99.90;;;;;;5001671;28;20672;-73
2021/04/16 14:09:04;;;;;;;6.63;2.70;;;22.20;99.90;;;;;;5000040;28;20201;-74
2021/04/16 14:11:34;;;;;;;5.40;2.80;;;22.20;99.90;;;;;;5012205;28;20241;-74
2021/04/16 14:14:10;;;;;;;5.73;2.77;;;22.20;99.90;;;;;;4998169;28;20196;-74
2021/04/16 14:16:41;;;;;;;3.17;2.13;;;22.10;99.90;;;;;;4982258;28;20600;-74
2021/04/16 14:19:32;;;;;;;4.10;2.43;;;22.00;99.90;;;;;;4981684;28;20248;-75
2021/04/16 14:21:59;;;;;;;7.00;2.90;;;21.90;99.90;;;;;;4998973;28;20237;-75
2021/04/16 14:24:26;;;;;;;7.50;2.40;;;21.90;99.90;;;;;;5018919;28;20178;-75
2021/04/16 14:26:56;;;;;;;4.53;2.43;;;21.80;99.90;;;;;;4978072;28;20293;-74
2021/04/16 14:29:23;;;;;;;4.87;2.43;;;21.60;99.90;;;;;;4998886;28;20216;-74
2021/04/16 14:31:49;;;;;;;3.13;2.23;;;21.50;99.90;;;;;;4997472;28;20192;-72
2021/04/16 14:34:21;;;;;;;4.37;2.60;;;21.30;99.90;;;;;;4995425;28;20189;-73
2021/04/16 14:36:48;;;;;;;5.60;2.30;;;21.40;99.90;;;;;;5013060;28;21277;-72
2021/04/16 14:39:15;;;;;;;4.63;2.43;;;21.20;99.90;;;;;;4989474;28;20211;-72
2021/04/16 14:41:41;;;;;;;7.33;2.20;;;21.00;99.90;;;;;;4994172;28;20713;-73
2021/04/16 14:44:14;;;;;;;7.57;2.50;;;21.00;99.90;;;;;;5018697;28;20216;-72
2021/04/16 14:46:49;;;;;;;5.03;2.63;;;21.10;99.90;;;;;;4977047;28;20191;-72
2021/04/16 14:49:19;;;;;;;4.50;2.43;;;20.90;99.90;;;;;;4998910;28;20198;-72
2021/04/16 14:51:47;;;;;;;5.60;2.50;;;20.80;99.90;;;;;;4995881;28;20566;-75
2021/04/16 14:54:39;;;;;;;2.90;2.20;;;20.70;99.90;;;;;;4999723;28;20643;-72
2021/04/16 14:57:15;;;;;;;4.63;2.23;;;20.50;99.90;;;;;;5000815;28;21053;-72
2021/04/16 14:59:45;;;;;;;4.10;2.20;;;20.80;99.90;;;;;;5002481;28;20641;-72
2021/04/16 15:02:11;;;;;;;2.90;2.27;;;21.00;99.90;;;;;;4999679;28;20808;-74
2021/04/16 15:04:38;;;;;;;5.13;2.43;;;21.10;99.90;;;;;;5002032;28;20209;-74
2021/04/16 15:07:08;;;;;;;4.63;2.17;;;21.00;99.90;;;;;;4979702;28;20524;-75
2021/04/16 15:09:51;;;;;;;5.97;2.60;;;20.90;99.90;;;;;;4982268;28;20200;-72
2021/04/16 15:12:22;;;;;;;4.13;2.83;;;20.80;99.90;;;;;;5014170;28;20200;-72
2021/04/16 15:14:52;;;;;;;7.63;2.67;;;20.70;99.90;;;;;;5020123;28;20546;-72
2021/04/16 15:17:21;;;;;;;4.03;2.30;;;20.70;99.90;;;;;;4983446;28;20221;-72
2021/04/16 15:19:52;;;;;;;11.30;2.70;;;20.60;99.90;;;;;;4999848;28;20199;-72
2021/04/16 15:22:29;;;;;;;4.53;2.47;;;20.50;99.90;;;;;;4997238;28;20644;-72
2021/04/16 15:24:59;;;;;;;9.17;2.70;;;20.40;99.90;;;;;;4984536;28;20188;-72